Weather History for Holdrege, NE

Change the Weather History Date:

Wednesday, January 8, 2014

  Actual Average Record
Temperature  
Mean Temperature 18 °F -  
Max Temperature 25 °F 31 °F 68 °F (2002)
Min Temperature 12 °F 8 °F -11 °F (1967)
Degree Days  
Heating Degree Days 46    
Moisture  
Dew Point 17 °F    
Average Humidity 83    
Maximum Humidity 93    
Minimum Humidity 66    
Precipitation  
Precipitation 0.00 in - - ()
Sea Level Pressure  
Sea Level Pressure 30.20 in    
Wind  
Wind Speed 11 mph (East)    
Max Wind Speed 17 mph    
Max Gust Speed 21 mph    
Visibility 8 miles    
Events Snow    
Averages and records for this station are not official NWS values.
T = Trace of Precipitation, MM = Missing Value Source: NWS Daily Summary

Daily Weather History Graph

Daily Weather History Graph

Search for Another Location

Airport:

Trip Planner

Search our weather history database for the weather conditions in past years. The results will help you decide how hot, cold, wet, or windy it might be!

Date:

Astronomy

Jan. 08, 2014 Rise Set
Actual Time 8:00 AM CST 5:28 PM CST
Civil Twilight 7:30 AM CST 5:58 PM CST
Nautical Twilight 6:56 AM CST 6:32 PM CST
Astronomical Twilight 6:23 AM CST 7:05 PM CST
Moon 12:22 PM CST (1/8) 1:06 AM CST (1/8)
Length of Visible Light 10h 28m
Length of Day
9h 27m
First Quarter, 56% of the Moon is Illuminated
Jan 8
First Quarter
Jan 15
Full
Jan 23
Last Quarter
Jan 30
New
Feb 6
First Quarter

Hourly Weather History & Observations

Time (CST) Temp. Windchill Dew Point Humidity Pressure Visibility Wind Dir Wind Speed Gust Speed Precip Events Conditions
12:15 AM 25.7 °F 14.6 °F 15.8 °F 66% 30.12 in 10.0 mi ENE 12.7 mph - N/A   Mostly Cloudy
12:35 AM 25.3 °F 14.7 °F 15.8 °F 67% 30.12 in 10.0 mi ENE 11.5 mph - N/A   Mostly Cloudy
12:55 AM 25.2 °F 15.7 °F 16.0 °F 68% 30.12 in 10.0 mi NE 9.2 mph - N/A   Overcast
1:15 AM 24.8 °F 15.3 °F 16.2 °F 70% 30.11 in 10.0 mi ENE 9.2 mph - N/A   Overcast
1:35 AM 25.0 °F 14.2 °F 16.2 °F 69% 30.12 in 10.0 mi ENE 11.5 mph - N/A   Overcast
1:55 AM 24.8 °F 12.9 °F 15.8 °F 69% 30.11 in 10.0 mi NE 13.8 mph - N/A   Overcast
2:15 AM 24.8 °F 12.4 °F 15.8 °F 69% 30.11 in 10.0 mi ENE 15.0 mph - N/A   Overcast
2:35 AM 24.8 °F 12.4 °F 15.8 °F 69% 30.11 in 10.0 mi ENE 15.0 mph - N/A   Overcast
2:55 AM 24.6 °F 12.7 °F 15.8 °F 69% 30.13 in 10.0 mi ENE 13.8 mph - N/A   Overcast
3:15 AM 24.4 °F 13.5 °F 15.8 °F 70% 30.13 in 10.0 mi NE 11.5 mph - N/A   Overcast
3:35 AM 23.9 °F 11.2 °F 15.3 °F 70% 30.13 in 10.0 mi ENE 15.0 mph 20.7 mph N/A   Overcast
3:55 AM 23.5 °F 10.8 °F 15.3 °F 71% 30.13 in 10.0 mi ENE 15.0 mph - N/A   Overcast
4:15 AM 23.0 °F 9.2 °F 16.3 °F 76% 30.13 in 10.0 mi ENE 17.3 mph - N/A   Overcast
4:35 AM 22.6 °F 9.6 °F 16.3 °F 77% 30.13 in 10.0 mi ENE 15.0 mph - N/A   Overcast
4:55 AM 22.5 °F 10.5 °F 16.3 °F 77% 30.14 in 10.0 mi ENE 12.7 mph - N/A   Overcast
5:15 AM 22.1 °F 9.5 °F 16.3 °F 79% 30.14 in 10.0 mi NE 13.8 mph - N/A   Overcast
5:35 AM 22.1 °F 8.9 °F 16.5 °F 79% 30.14 in 10.0 mi NE 15.0 mph - N/A   Overcast
5:55 AM 22.1 °F 10.0 °F 16.7 °F 80% 30.14 in 10.0 mi NE 12.7 mph - N/A   Overcast
6:15 AM 21.9 °F 10.4 °F 16.7 °F 80% 30.14 in 10.0 mi NE 11.5 mph - N/A   Overcast
6:35 AM 21.7 °F 9.6 °F 17.1 °F 82% 30.14 in 10.0 mi NE 12.7 mph - N/A   Overcast
6:55 AM 21.9 °F 10.4 °F 17.6 °F 83% 30.15 in 10.0 mi ENE 11.5 mph - N/A   Overcast
7:15 AM 21.7 °F 9.0 °F 17.6 °F 84% 30.16 in 7.0 mi ENE 13.8 mph - N/A Snow Light Snow
7:35 AM 21.2 °F 8.3 °F 18.0 °F 87% 30.17 in 5.0 mi ENE 13.8 mph - N/A Snow Light Snow
7:55 AM 21.2 °F 8.9 °F 18.3 °F 89% 30.18 in 3.0 mi ENE 12.7 mph - N/A Snow Light Snow
8:15 AM 21.0 °F 9.9 °F 18.1 °F 89% 30.19 in 3.0 mi ENE 10.4 mph - N/A Snow Light Snow
8:35 AM 21.0 °F 9.3 °F 18.1 °F 89% 30.20 in 3.0 mi ENE 11.5 mph - N/A Snow Light Snow
8:55 AM 21.2 °F 9.5 °F 18.3 °F 89% 30.22 in 2.5 mi ENE 11.5 mph - N/A Snow Light Snow
9:15 AM 21.6 °F 11.3 °F 18.3 °F 87% 30.23 in 2.0 mi ENE 9.2 mph - N/A Snow Light Snow
9:35 AM 21.2 °F 10.1 °F 18.1 °F 88% 30.24 in 2.5 mi ENE 10.4 mph - N/A Snow Light Snow
9:55 AM 21.7 °F 12.3 °F 18.5 °F 87% 30.25 in 2.0 mi ENE 8.1 mph - N/A Snow Light Snow
10:15 AM 22.1 °F 10.6 °F 18.7 °F 87% 30.26 in 1.5 mi East 11.5 mph - N/A Snow Light Snow
10:35 AM 22.1 °F 11.3 °F 18.5 °F 86% 30.27 in 1.5 mi ENE 10.4 mph - N/A Snow Light Snow
10:55 AM 22.1 °F 12.8 °F 18.3 °F 85% 30.27 in 1.2 mi East 8.1 mph - N/A Snow Light Snow
11:15 AM 22.6 °F 13.4 °F 19.2 °F 87% 30.27 in 1.8 mi East 8.1 mph - N/A Snow Light Snow
11:35 AM 22.5 °F 11.7 °F 18.3 °F 84% 30.27 in 1.8 mi East 10.4 mph - N/A Snow Light Snow
11:55 AM 22.1 °F 11.3 °F 18.1 °F 85% 30.26 in 1.5 mi East 10.4 mph - N/A Snow Light Snow
12:15 PM 22.3 °F 12.2 °F 18.1 °F 84% 30.24 in 1.8 mi East 9.2 mph - N/A Snow Light Snow
12:35 PM 22.5 °F 12.4 °F 17.6 °F 82% 30.23 in 2.5 mi East 9.2 mph - N/A   Haze
12:55 PM 23.0 °F 13.1 °F 18.0 °F 81% 30.23 in 3.0 mi ENE 9.2 mph - N/A   Haze
1:15 PM 23.4 °F 13.5 °F 18.3 °F 81% 30.23 in 7.0 mi ENE 9.2 mph - N/A   Mostly Cloudy
1:35 PM 23.9 °F 15.0 °F 18.1 °F 79% 30.22 in 10.0 mi ENE 8.1 mph - N/A   Overcast
1:55 PM 24.4 °F 14.9 °F 18.9 °F 79% 30.21 in 10.0 mi ENE 9.2 mph - N/A   Overcast
2:15 PM 24.3 °F 15.4 °F 19.4 °F 82% 30.21 in 10.0 mi NE 8.1 mph - N/A   Overcast
2:35 PM 24.4 °F 14.2 °F 19.4 °F 81% 30.21 in 10.0 mi NE 10.4 mph - N/A   Overcast
2:55 PM 24.4 °F 14.9 °F 19.6 °F 82% 30.20 in 10.0 mi NE 9.2 mph - N/A   Overcast
3:15 PM 24.4 °F 16.5 °F 19.9 °F 83% 30.20 in 10.0 mi ENE 6.9 mph - N/A   Overcast
3:35 PM 24.4 °F 14.9 °F 19.9 °F 83% 30.20 in 10.0 mi East 9.2 mph - N/A   Overcast
3:55 PM 23.4 °F 14.3 °F 18.7 °F 82% 30.21 in 10.0 mi East 8.1 mph - N/A   Overcast
4:15 PM 23.0 °F 13.9 °F 18.3 °F 82% 30.22 in 10.0 mi East 8.1 mph - N/A   Overcast
4:35 PM 22.6 °F 13.4 °F 18.3 °F 83% 30.22 in 10.0 mi East 8.1 mph - N/A   Overcast
4:55 PM 21.9 °F 11.7 °F 17.8 °F 84% 30.21 in 10.0 mi East 9.2 mph - N/A   Overcast
5:15 PM 21.2 °F 13.6 °F 17.4 °F 85% 30.21 in 10.0 mi East 5.8 mph - N/A   Overcast
5:35 PM 20.8 °F 10.4 °F 16.9 °F 85% 30.22 in 10.0 mi East 9.2 mph - N/A   Overcast
5:55 PM 20.3 °F 9.0 °F 16.7 °F 86% 30.22 in 10.0 mi East 10.4 mph - N/A   Overcast
6:15 PM 20.1 °F 10.3 °F 16.5 °F 86% 30.22 in 10.0 mi East 8.1 mph - N/A   Overcast
6:35 PM 19.4 °F 10.4 °F 15.8 °F 86% 30.22 in 10.0 mi East 6.9 mph - N/A   Overcast
6:55 PM 19.0 °F 10.0 °F 15.8 °F 87% 30.23 in 10.0 mi East 6.9 mph - N/A   Overcast
7:15 PM 17.6 °F 8.2 °F 14.5 °F 88% 30.22 in 10.0 mi East 6.9 mph - N/A   Mostly Cloudy
7:35 PM 16.0 °F 6.3 °F 13.3 °F 89% 30.23 in 10.0 mi East 6.9 mph - N/A   Clear
7:55 PM 12.6 °F 1.1 °F 9.9 °F 89% 30.23 in 10.0 mi ESE 8.1 mph - N/A   Clear
8:15 PM 13.6 °F 4.6 °F 11.1 °F 90% 30.24 in 10.0 mi ESE 5.8 mph - N/A   Clear
8:35 PM 13.6 °F - 11.3 °F 90% 30.25 in 10.0 mi Calm Calm - N/A   Mostly Cloudy
8:55 PM 13.3 °F 4.2 °F 11.1 °F 91% 30.25 in 10.0 mi SSE 5.8 mph - N/A   Scattered Clouds
9:15 PM 12.0 °F 1.5 °F 9.3 °F 89% 30.25 in 10.0 mi SE 6.9 mph - N/A   Scattered Clouds
9:35 PM 14.7 °F 5.9 °F 12.9 °F 93% 30.24 in 10.0 mi SE 5.8 mph - N/A   Overcast
9:55 PM 16.2 °F 6.5 °F 14.0 °F 91% 30.24 in 7.0 mi SSE 6.9 mph - N/A   Overcast
10:15 PM 16.5 °F 5.1 °F 14.5 °F 92% 30.24 in 5.0 mi SE 9.2 mph - N/A   Overcast
10:35 PM 17.1 °F 7.6 °F 14.9 °F 91% 30.24 in 5.0 mi SSE 6.9 mph - N/A   Overcast
10:55 PM 17.6 °F 7.3 °F 15.4 °F 91% 30.23 in 5.0 mi South 8.1 mph - N/A   Overcast
11:15 PM 17.4 °F 8.0 °F 15.1 °F 91% 30.23 in 4.0 mi SSE 6.9 mph - N/A   Overcast
11:35 PM 16.7 °F 7.2 °F 14.7 °F 92% 30.22 in 3.0 mi South 6.9 mph - N/A   Overcast
11:55 PM 16.3 °F 9.2 °F 14.2 °F 91% 30.22 in 4.0 mi South 4.6 mph - N/A   Overcast